createdAt,value
2024-03-12T00:01:01.811Z,7.57
2024-03-12T00:03:28.976Z,12.73
2024-03-12T00:06:00.783Z,9.17
2024-03-12T00:08:30.918Z,10.73
2024-03-12T00:10:57.403Z,9.33
2024-03-12T00:13:24.473Z,18.50
2024-03-12T00:15:51.082Z,9.57
2024-03-12T00:18:17.581Z,10.33
2024-03-12T00:20:45.590Z,12.57
2024-03-12T00:23:12.916Z,11.03
2024-03-12T00:25:40.319Z,10.90
2024-03-12T00:28:09.575Z,10.57
2024-03-12T00:30:36.041Z,12.67
2024-03-12T00:33:02.684Z,9.90
2024-03-12T00:35:36.397Z,9.33
2024-03-12T00:38:04.879Z,9.80
2024-03-12T00:40:34.928Z,10.63
2024-03-12T00:43:04.358Z,10.07
2024-03-12T00:45:38.278Z,10.63
2024-03-12T00:48:14.746Z,12.07
2024-03-12T00:50:43.652Z,11.63
2024-03-12T00:53:12.767Z,12.07
2024-03-12T00:55:41.445Z,13.27
2024-03-12T00:58:14.214Z,12.30
2024-03-12T01:00:42.278Z,13.73
2024-03-12T01:03:13.152Z,13.77
2024-03-12T01:05:40.564Z,13.00
2024-03-12T01:08:08.747Z,12.10
2024-03-12T01:10:35.883Z,12.83
2024-03-12T01:13:06.966Z,14.53
2024-03-12T01:15:33.589Z,12.93
2024-03-12T01:18:00.093Z,13.43
2024-03-12T01:20:27.786Z,16.73
2024-03-12T01:22:55.755Z,17.07
2024-03-12T01:25:23.447Z,16.73
2024-03-12T01:27:52.002Z,12.80
2024-03-12T01:30:21.824Z,15.20
2024-03-12T01:32:49.222Z,13.90
2024-03-12T01:35:15.886Z,13.93
2024-03-12T01:37:46.572Z,14.13
2024-03-12T01:40:26.646Z,13.70
2024-03-12T01:42:55.366Z,16.37
2024-03-12T01:45:23.980Z,17.80
2024-03-12T01:47:55.740Z,19.33
2024-03-12T01:50:25.933Z,16.73
2024-03-12T01:53:06.666Z,15.97
2024-03-12T01:55:39.352Z,15.23
2024-03-12T01:58:06.147Z,15.47
2024-03-12T02:00:34.518Z,16.57
2024-03-12T02:03:01.394Z,14.97
2024-03-12T02:05:27.925Z,15.43
2024-03-12T02:07:54.932Z,15.03
2024-03-12T02:10:21.788Z,14.63
2024-03-12T02:12:48.730Z,15.00
2024-03-12T02:15:21.939Z,16.07
2024-03-12T02:17:49.374Z,17.70
2024-03-12T02:20:15.896Z,13.80
2024-03-12T02:22:42.289Z,17.27
2024-03-12T02:25:12.601Z,17.33
2024-03-12T02:27:42.370Z,16.80
2024-03-12T02:30:10.017Z,17.43
2024-03-12T02:32:37.401Z,16.73
2024-03-12T02:35:04.178Z,18.23
2024-03-12T02:37:30.585Z,17.37
2024-03-12T02:39:57.109Z,19.10
2024-03-12T02:42:23.634Z,21.87
2024-03-12T02:44:50.037Z,17.47
2024-03-12T02:47:21.014Z,17.90
2024-03-12T02:49:47.916Z,18.87
2024-03-12T02:52:14.476Z,17.87
2024-03-12T02:54:42.851Z,17.40
2024-03-12T02:57:12.529Z,18.93
2024-03-12T02:59:39.377Z,16.93
2024-03-12T03:02:06.563Z,18.03
2024-03-12T03:04:38.210Z,19.77
2024-03-12T03:07:08.664Z,16.67
2024-03-12T03:09:35.655Z,18.60
2024-03-12T03:12:02.207Z,18.57
2024-03-12T03:14:28.762Z,18.13
2024-03-12T03:16:55.657Z,18.43
2024-03-12T03:19:23.883Z,19.43
2024-03-12T03:21:50.346Z,18.47
2024-03-12T03:24:16.743Z,18.20
2024-03-12T03:26:43.230Z,18.23
2024-03-12T03:29:09.671Z,17.93
2024-03-12T03:31:36.066Z,15.87
2024-03-12T03:34:05.874Z,19.73
2024-03-12T03:36:33.182Z,21.13
2024-03-12T03:38:59.873Z,21.03
2024-03-12T03:41:26.477Z,19.77
2024-03-12T03:43:52.874Z,21.10
2024-03-12T03:46:19.772Z,19.67
2024-03-12T03:48:46.226Z,20.77
2024-03-12T03:51:12.695Z,20.77
2024-03-12T03:53:41.416Z,20.83
2024-03-12T03:56:16.433Z,22.10
2024-03-12T03:58:44.536Z,17.80
2024-03-12T04:01:11.801Z,20.60
2024-03-12T04:03:40.162Z,21.17
2024-03-12T04:06:08.182Z,18.23
2024-03-12T04:08:36.053Z,23.23
2024-03-12T04:11:02.707Z,21.03
2024-03-12T04:13:29.180Z,22.57
2024-03-12T04:15:56.576Z,22.70
2024-03-12T04:18:23.896Z,26.80
2024-03-12T04:20:52.254Z,23.83
2024-03-12T04:23:18.673Z,24.83
2024-03-12T04:25:45.153Z,24.90
2024-03-12T04:28:16.910Z,24.73
2024-03-12T04:30:43.781Z,23.73
2024-03-12T04:33:10.335Z,21.70
2024-03-12T04:35:37.232Z,21.00
2024-03-12T04:38:03.962Z,20.83
2024-03-12T04:40:30.431Z,20.47
2024-03-12T04:42:56.871Z,19.37
2024-03-12T04:45:23.332Z,21.50
2024-03-12T04:47:50.356Z,22.10
2024-03-12T04:50:18.971Z,24.90
2024-03-12T04:52:45.762Z,23.63
2024-03-12T04:55:14.356Z,24.07
2024-03-12T04:57:40.950Z,21.87
2024-03-12T05:00:15.142Z,22.20
2024-03-12T05:02:42.527Z,21.80
2024-03-12T05:05:09.098Z,20.73
2024-03-12T05:07:35.544Z,23.53
2024-03-12T05:10:02.127Z,21.47
2024-03-12T05:12:28.665Z,23.97
2024-03-12T05:14:55.734Z,25.20
2024-03-12T05:17:22.791Z,25.07
2024-03-12T05:19:49.960Z,22.90
2024-03-12T05:22:17.435Z,23.30
2024-03-12T05:24:43.943Z,23.40
2024-03-12T05:27:11.196Z,24.30
2024-03-12T05:29:43.405Z,25.37
2024-03-12T05:32:19.111Z,31.00
2024-03-12T05:34:49.527Z,26.83
2024-03-12T05:37:41.613Z,30.83
2024-03-12T05:40:14.422Z,35.10
2024-03-12T05:42:59.480Z,31.23
2024-03-12T05:45:44.412Z,39.80
2024-03-12T05:48:11.532Z,36.20
2024-03-12T05:50:39.297Z,33.10
2024-03-12T05:53:05.933Z,33.33
2024-03-12T05:55:33.193Z,29.07
2024-03-12T05:57:59.933Z,29.93
2024-03-12T06:00:26.452Z,28.53
2024-03-12T06:02:52.882Z,31.50
2024-03-12T06:05:19.620Z,27.03
2024-03-12T06:07:46.059Z,31.00
2024-03-12T06:10:12.751Z,28.97
2024-03-12T06:12:39.560Z,28.90
2024-03-12T06:15:06.520Z,31.67
2024-03-12T06:17:33.560Z,26.80
2024-03-12T06:20:00.324Z,29.03
2024-03-12T06:22:27.813Z,25.50
2024-03-12T06:24:54.776Z,30.17
2024-03-12T06:27:22.381Z,28.40
2024-03-12T06:29:53.128Z,29.93
2024-03-12T06:32:22.061Z,32.60
2024-03-12T06:34:49.396Z,30.00
2024-03-12T06:37:16.773Z,30.07
2024-03-12T06:39:45.712Z,30.93
2024-03-12T06:42:13.825Z,32.50
2024-03-12T06:44:43.628Z,29.63
2024-03-12T06:47:11.295Z,30.10
2024-03-12T06:49:40.274Z,32.67
2024-03-12T06:52:08.005Z,33.27
2024-03-12T06:54:36.229Z,39.97
2024-03-12T06:57:05.403Z,35.57
2024-03-12T06:59:35.000Z,35.90
2024-03-12T07:02:02.063Z,39.43
2024-03-12T07:04:36.126Z,38.87
2024-03-12T07:07:06.811Z,38.87
2024-03-12T07:09:37.003Z,37.00
2024-03-12T07:12:05.447Z,42.07
2024-03-12T07:14:33.692Z,38.27
2024-03-12T07:17:00.761Z,39.57
2024-03-12T07:19:27.274Z,40.27
2024-03-12T07:21:55.907Z,38.00
2024-03-12T07:24:22.489Z,37.23
2024-03-12T07:26:48.939Z,40.63
2024-03-12T07:29:16.210Z,41.03
2024-03-12T07:31:42.619Z,41.03
2024-03-12T07:34:09.163Z,38.80
2024-03-12T07:36:36.132Z,38.67
2024-03-12T07:39:10.357Z,36.30
2024-03-12T07:41:37.076Z,38.70
2024-03-12T07:44:03.542Z,42.70
2024-03-12T07:46:30.325Z,42.27
2024-03-12T07:48:57.652Z,42.97
2024-03-12T07:51:24.427Z,41.93
2024-03-12T07:53:50.926Z,43.00
2024-03-12T07:56:19.677Z,41.10
2024-03-12T07:58:47.473Z,41.80
2024-03-12T08:01:15.612Z,43.00
2024-03-12T08:03:42.920Z,44.17
2024-03-12T08:06:09.567Z,44.50
2024-03-12T08:08:36.028Z,46.13
2024-03-12T08:11:05.955Z,46.23
2024-03-12T08:13:32.988Z,46.80
2024-03-12T08:15:59.856Z,46.03
2024-03-12T08:18:27.658Z,46.10
2024-03-12T08:20:54.266Z,48.87
2024-03-12T08:23:21.014Z,52.87
2024-03-12T08:25:55.766Z,51.40
2024-03-12T08:28:26.248Z,51.57
2024-03-12T08:30:53.052Z,49.90
2024-03-12T08:33:20.231Z,51.93
2024-03-12T08:35:46.921Z,55.67
2024-03-12T08:38:13.541Z,53.57
2024-03-12T08:40:40.009Z,54.13
2024-03-12T08:43:08.946Z,50.93
2024-03-12T08:45:36.935Z,53.47
2024-03-12T08:48:07.208Z,48.83
2024-03-12T08:50:36.502Z,52.00
2024-03-12T08:53:03.101Z,53.57
2024-03-12T08:55:30.034Z,48.60
2024-03-12T08:57:56.682Z,52.57
2024-03-12T09:00:23.137Z,50.77
2024-03-12T09:02:50.656Z,50.10
2024-03-12T09:05:18.404Z,51.20
2024-03-12T09:07:46.512Z,55.97
2024-03-12T09:10:14.149Z,49.23
2024-03-12T09:12:44.254Z,49.83
2024-03-12T09:15:11.323Z,48.07
2024-03-12T09:17:38.733Z,46.27
2024-03-12T09:20:12.074Z,47.13
2024-03-12T09:22:39.014Z,45.70
2024-03-12T09:25:06.373Z,43.17
2024-03-12T09:27:33.157Z,45.50
2024-03-12T09:29:59.632Z,48.07
2024-03-12T09:32:26.071Z,42.97
2024-03-12T09:34:55.402Z,44.80
2024-03-12T09:37:22.208Z,47.07
2024-03-12T09:39:52.615Z,46.37
2024-03-12T09:42:23.774Z,46.23
2024-03-12T09:44:51.568Z,47.90
2024-03-12T09:47:18.834Z,42.57
2024-03-12T09:49:45.678Z,40.77
2024-03-12T09:52:12.713Z,42.70
2024-03-12T09:54:40.093Z,42.97
2024-03-12T09:57:13.073Z,40.90
2024-03-12T09:59:41.437Z,41.87
2024-03-12T10:02:11.376Z,42.30
2024-03-12T10:04:38.969Z,39.57
2024-03-12T10:07:07.048Z,41.10
2024-03-12T10:09:33.673Z,37.30
2024-03-12T10:12:03.524Z,39.90
2024-03-12T10:14:31.277Z,39.27
2024-03-12T10:17:15.108Z,33.57
2024-03-12T10:19:48.677Z,34.50
2024-03-12T10:22:22.087Z,36.23
2024-03-12T10:24:49.958Z,33.23
2024-03-12T10:27:17.470Z,36.73
2024-03-12T10:29:44.061Z,35.40
2024-03-12T10:32:21.114Z,33.90
2024-03-12T10:34:48.489Z,36.20
2024-03-12T10:37:33.356Z,32.10
2024-03-12T10:40:20.479Z,38.63
2024-03-12T10:42:52.593Z,37.10
2024-03-12T10:45:19.390Z,38.67
2024-03-12T10:47:49.072Z,38.13
2024-03-12T10:50:17.544Z,34.37
2024-03-12T10:52:46.455Z,37.07
2024-03-12T10:55:22.350Z,33.27
2024-03-12T10:57:56.355Z,37.43
2024-03-12T11:00:26.621Z,36.83
2024-03-12T11:02:57.103Z,34.77
2024-03-12T11:05:30.757Z,34.30
2024-03-12T11:07:59.020Z,30.87
2024-03-12T11:10:28.247Z,33.07
2024-03-12T11:12:56.402Z,31.47
2024-03-12T11:15:24.499Z,34.10
2024-03-12T11:17:51.838Z,32.80
2024-03-12T11:20:27.470Z,35.33
2024-03-12T11:22:57.589Z,33.13
2024-03-12T11:25:28.413Z,32.67
2024-03-12T11:28:27.480Z,31.30
2024-03-12T11:31:03.173Z,33.13
2024-03-12T11:33:39.021Z,30.97
2024-03-12T11:36:25.187Z,33.37
2024-03-12T11:38:53.113Z,34.13
2024-03-12T11:41:22.664Z,37.77
2024-03-12T11:43:49.844Z,34.83
2024-03-12T11:46:21.782Z,34.10
2024-03-12T11:48:49.979Z,33.17
2024-03-12T11:51:16.741Z,35.40
2024-03-12T11:53:46.271Z,36.17
2024-03-12T11:56:19.640Z,32.30
2024-03-12T11:59:02.344Z,35.10
2024-03-12T12:01:34.048Z,31.70
2024-03-12T12:04:06.608Z,33.80
2024-03-12T12:06:34.130Z,34.00
2024-03-12T12:09:09.749Z,35.97
2024-03-12T12:11:39.089Z,33.97
2024-03-12T12:14:07.321Z,32.43
2024-03-12T12:16:34.010Z,31.47
2024-03-12T12:19:12.064Z,33.93
2024-03-12T12:21:44.081Z,33.27
2024-03-12T12:24:12.294Z,35.40
2024-03-12T12:26:40.080Z,35.30
2024-03-12T12:29:10.677Z,34.20
2024-03-12T12:31:38.524Z,33.17
2024-03-12T12:34:12.046Z,32.30
2024-03-12T12:36:44.366Z,33.90
2024-03-12T12:39:12.936Z,31.43
2024-03-12T12:41:44.335Z,34.60
2024-03-12T12:44:16.929Z,34.47
2024-03-12T12:46:44.581Z,32.03
2024-03-12T12:49:14.898Z,37.50
2024-03-12T12:51:42.635Z,35.77
2024-03-12T12:54:10.544Z,38.27
2024-03-12T12:56:42.400Z,38.37
2024-03-12T12:59:15.536Z,39.30
2024-03-12T13:01:42.304Z,45.77
2024-03-12T13:04:30.738Z,49.70
2024-03-12T13:06:58.203Z,47.13
2024-03-12T13:09:36.781Z,50.00
2024-03-12T13:12:08.611Z,54.80
2024-03-12T13:14:38.068Z,58.70
2024-03-12T13:17:06.584Z,48.77
2024-03-12T13:19:33.972Z,54.53
2024-03-12T13:22:01.816Z,55.40
2024-03-12T13:24:30.967Z,53.83
2024-03-12T13:26:59.280Z,54.90
2024-03-12T13:29:26.435Z,55.37
2024-03-12T13:31:54.262Z,59.30
2024-03-12T13:34:21.030Z,56.17
2024-03-12T13:36:48.981Z,56.00
2024-03-12T13:39:16.564Z,54.87
2024-03-12T13:41:43.164Z,56.37
2024-03-12T13:44:09.694Z,56.90
2024-03-12T13:46:37.249Z,57.43
2024-03-12T13:49:12.942Z,60.00
2024-03-12T13:51:40.439Z,59.30
2024-03-12T13:54:09.814Z,60.40
2024-03-12T13:56:37.727Z,52.10
2024-03-12T13:59:07.835Z,54.70
2024-03-12T14:01:34.499Z,56.33
2024-03-12T14:04:01.418Z,56.03
2024-03-12T14:06:29.234Z,58.80
2024-03-12T14:08:55.751Z,58.43
2024-03-12T14:11:22.457Z,53.73
2024-03-12T14:13:50.960Z,51.40
2024-03-12T14:16:19.827Z,57.83
2024-03-12T14:18:50.608Z,49.80
2024-03-12T14:21:17.566Z,49.97
2024-03-12T14:23:43.984Z,51.77
2024-03-12T14:26:10.444Z,56.30
2024-03-12T14:28:36.896Z,48.97
2024-03-12T14:31:03.981Z,47.47
2024-03-12T14:33:30.617Z,43.27
2024-03-12T14:35:57.052Z,36.30
2024-03-12T14:38:24.055Z,41.93
2024-03-12T14:40:50.826Z,42.40
2024-03-12T14:43:17.397Z,43.13
2024-03-12T14:45:47.265Z,40.73
2024-03-12T14:48:14.365Z,40.20
2024-03-12T14:50:41.018Z,38.30
2024-03-12T14:53:09.071Z,42.67
2024-03-12T14:55:35.778Z,42.57
2024-03-12T14:58:02.354Z,34.47
2024-03-12T15:00:29.816Z,36.20
2024-03-12T15:02:57.046Z,33.33
2024-03-12T15:05:24.783Z,33.63
2024-03-12T15:07:51.386Z,34.27
2024-03-12T15:10:20.470Z,34.37
2024-03-12T15:12:46.967Z,33.67
2024-03-12T15:15:14.306Z,32.53
2024-03-12T15:17:42.032Z,33.30
2024-03-12T15:20:16.122Z,31.43
2024-03-12T15:22:43.811Z,31.27
2024-03-12T15:25:13.428Z,26.50
2024-03-12T15:27:41.161Z,27.13
2024-03-12T15:30:08.434Z,23.43
2024-03-12T15:32:36.933Z,24.23
2024-03-12T15:35:05.327Z,22.43
2024-03-12T15:37:33.217Z,20.60
2024-03-12T15:40:06.972Z,20.77
2024-03-12T15:42:35.229Z,18.60
2024-03-12T15:45:05.854Z,20.23
2024-03-12T15:47:35.716Z,21.47
2024-03-12T15:50:02.528Z,23.37
2024-03-12T15:52:29.086Z,18.60
2024-03-12T15:54:55.624Z,24.97
2024-03-12T15:57:23.624Z,22.03
2024-03-12T15:59:50.252Z,21.53
2024-03-12T16:02:16.887Z,20.97
2024-03-12T16:04:43.882Z,19.93
2024-03-12T16:07:10.438Z,22.07
2024-03-12T16:09:37.139Z,18.90
2024-03-12T16:12:03.740Z,21.87
2024-03-12T16:14:30.197Z,21.80
2024-03-12T16:16:56.896Z,22.00
2024-03-12T16:19:24.031Z,19.77
2024-03-12T16:21:50.937Z,23.17
2024-03-12T16:24:17.436Z,20.87
2024-03-12T16:26:44.235Z,21.80
2024-03-12T16:29:10.730Z,18.33
2024-03-12T16:31:37.177Z,22.90
2024-03-12T16:34:05.653Z,26.40
2024-03-12T16:36:32.589Z,22.10
2024-03-12T16:39:00.296Z,20.67
2024-03-12T16:41:27.509Z,21.70
2024-03-12T16:43:55.531Z,20.70
2024-03-12T16:46:22.060Z,24.63
2024-03-12T16:48:48.620Z,25.57
2024-03-12T16:51:16.466Z,23.17
2024-03-12T16:53:43.014Z,24.07
2024-03-12T16:56:10.539Z,24.33
2024-03-12T16:58:44.214Z,23.30
2024-03-12T17:01:13.131Z,21.50
2024-03-12T17:03:39.880Z,27.43
2024-03-12T17:06:06.807Z,25.77
2024-03-12T17:08:33.572Z,25.07
2024-03-12T17:11:00.422Z,27.53
2024-03-12T17:13:27.892Z,25.77
2024-03-12T17:15:56.052Z,28.77
2024-03-12T17:18:25.247Z,25.67
2024-03-12T17:20:58.706Z,25.63
2024-03-12T17:23:25.457Z,32.20
2024-03-12T17:25:53.897Z,26.23
2024-03-12T17:28:20.793Z,25.17
2024-03-12T17:30:47.590Z,27.33
2024-03-12T17:33:14.312Z,24.33
2024-03-12T17:35:41.992Z,28.30
2024-03-12T17:38:13.964Z,28.83
2024-03-12T17:40:41.242Z,28.40
2024-03-12T17:43:08.154Z,29.20
2024-03-12T17:45:35.034Z,33.67
2024-03-12T17:48:05.520Z,28.70
2024-03-12T17:50:33.015Z,28.27
2024-03-12T17:53:01.635Z,28.87
2024-03-12T17:55:29.437Z,32.73
2024-03-12T17:57:56.413Z,29.13
2024-03-12T18:00:23.373Z,30.33
2024-03-12T18:02:50.785Z,33.83
2024-03-12T18:05:20.630Z,27.70
2024-03-12T18:07:49.385Z,34.33
2024-03-12T18:10:18.039Z,33.43
2024-03-12T18:12:45.693Z,28.73
2024-03-12T18:15:13.119Z,30.07
2024-03-12T18:17:40.705Z,32.77
2024-03-12T18:20:13.370Z,32.40
2024-03-12T18:22:41.366Z,31.00
2024-03-12T18:25:11.958Z,30.73
2024-03-12T18:27:44.237Z,28.87
2024-03-12T18:30:11.913Z,28.30
2024-03-12T18:32:41.445Z,32.10
2024-03-12T18:35:09.512Z,28.17
2024-03-12T18:37:39.654Z,27.87
2024-03-12T18:40:12.996Z,30.13
2024-03-12T18:42:42.363Z,30.57
2024-03-12T18:45:19.348Z,24.87
2024-03-12T18:47:50.776Z,29.03
2024-03-12T18:50:18.405Z,32.03
2024-03-12T18:52:48.850Z,25.40
2024-03-12T18:55:18.021Z,28.03
2024-03-12T18:57:46.763Z,28.27
2024-03-12T19:00:15.835Z,25.83
2024-03-12T19:02:49.410Z,31.17
2024-03-12T19:05:21.334Z,26.90
2024-03-12T19:07:50.406Z,34.40
2024-03-12T19:10:19.211Z,34.00
2024-03-12T19:12:46.602Z,29.20
2024-03-12T19:15:15.873Z,27.13
2024-03-12T19:17:45.329Z,28.33
2024-03-12T19:20:16.333Z,31.77
2024-03-12T19:22:51.721Z,27.73
2024-03-12T19:25:20.007Z,30.03
2024-03-12T19:27:49.542Z,31.67
2024-03-12T19:30:21.049Z,30.83
2024-03-12T19:32:51.949Z,32.30
2024-03-12T19:35:19.537Z,31.37
2024-03-12T19:37:47.090Z,30.00
2024-03-12T19:40:17.353Z,38.23
2024-03-12T19:42:49.843Z,32.80
2024-03-12T19:45:19.118Z,31.60
2024-03-12T19:47:46.755Z,30.37
2024-03-12T19:50:18.943Z,36.47
2024-03-12T19:52:50.006Z,32.07
2024-03-12T19:55:25.759Z,30.23
2024-03-12T19:57:57.290Z,33.47
2024-03-12T20:00:32.319Z,34.77
2024-03-12T20:03:00.925Z,31.77
2024-03-12T20:05:31.289Z,30.33
2024-03-12T20:07:59.033Z,34.70
2024-03-12T20:10:26.611Z,35.10
2024-03-12T20:12:56.437Z,37.97
2024-03-12T20:15:24.387Z,34.87
2024-03-12T20:17:52.118Z,31.93
2024-03-12T20:20:18.989Z,37.87
2024-03-12T20:22:52.032Z,33.23
2024-03-12T20:25:20.197Z,33.37
2024-03-12T20:27:53.944Z,32.60
2024-03-12T20:30:23.325Z,34.10
2024-03-12T20:32:53.002Z,32.17
2024-03-12T20:35:19.602Z,29.80
2024-03-12T20:37:46.797Z,34.43
2024-03-12T20:40:13.569Z,30.77
2024-03-12T20:42:41.004Z,33.83
2024-03-12T20:45:11.154Z,34.97
2024-03-12T20:47:39.699Z,35.27
2024-03-12T20:50:08.379Z,32.90
2024-03-12T20:52:39.273Z,37.03
2024-03-12T20:55:09.828Z,33.20
2024-03-12T20:57:36.839Z,30.33
2024-03-12T21:00:17.628Z,35.90
2024-03-12T21:02:46.865Z,33.23
2024-03-12T21:05:14.128Z,36.80
2024-03-12T21:07:40.692Z,34.60
2024-03-12T21:10:08.077Z,34.77
2024-03-12T21:12:34.882Z,34.07
2024-03-12T21:15:07.376Z,30.17
2024-03-12T21:17:35.101Z,34.73
2024-03-12T21:20:02.157Z,32.53
2024-03-12T21:22:28.662Z,35.47
2024-03-12T21:24:59.383Z,30.23
2024-03-12T21:27:27.982Z,37.03
2024-03-12T21:29:54.668Z,37.70
2024-03-12T21:32:21.088Z,33.97
2024-03-12T21:34:48.227Z,37.10
2024-03-12T21:37:14.847Z,35.30
2024-03-12T21:39:41.442Z,34.60
2024-03-12T21:42:07.981Z,33.00
2024-03-12T21:44:35.844Z,35.10
2024-03-12T21:47:02.367Z,38.37
2024-03-12T21:49:28.811Z,39.17
2024-03-12T21:51:56.344Z,36.17
2024-03-12T21:54:23.753Z,32.67
2024-03-12T21:56:50.210Z,39.23
2024-03-12T21:59:18.314Z,37.30
2024-03-12T22:01:45.093Z,40.00
2024-03-12T22:04:11.605Z,37.20
2024-03-12T22:06:38.621Z,33.83
2024-03-12T22:09:05.159Z,36.13
2024-03-12T22:11:31.684Z,44.27
2024-03-12T22:13:58.644Z,41.90
2024-03-12T22:16:25.494Z,38.00
2024-03-12T22:18:52.427Z,40.37
2024-03-12T22:21:23.796Z,42.17
2024-03-12T22:23:50.312Z,41.17
2024-03-12T22:26:16.898Z,42.37
2024-03-12T22:28:43.528Z,40.93
2024-03-12T22:31:11.193Z,42.00
2024-03-12T22:33:41.697Z,40.43
2024-03-12T22:36:08.605Z,41.70
2024-03-12T22:38:36.523Z,42.07
2024-03-12T22:41:06.142Z,39.73
2024-03-12T22:43:38.764Z,40.10
2024-03-12T22:46:11.241Z,36.23
2024-03-12T22:48:38.169Z,41.80
2024-03-12T22:51:05.412Z,40.40
2024-03-12T22:53:33.013Z,38.47
2024-03-12T22:56:00.078Z,43.33
2024-03-12T22:58:28.296Z,43.50
2024-03-12T23:00:55.667Z,43.90
2024-03-12T23:03:23.640Z,39.90
2024-03-12T23:05:50.498Z,45.07
2024-03-12T23:08:20.440Z,44.20
2024-03-12T23:10:47.833Z,43.47
2024-03-12T23:13:17.175Z,46.97
2024-03-12T23:15:44.494Z,43.23
2024-03-12T23:18:13.003Z,44.00
2024-03-12T23:20:41.255Z,46.93
2024-03-12T23:23:08.674Z,46.03
2024-03-12T23:25:37.160Z,44.83
2024-03-12T23:28:05.324Z,47.53
2024-03-12T23:30:35.771Z,42.17
2024-03-12T23:33:03.174Z,49.27
2024-03-12T23:35:30.064Z,40.37
2024-03-12T23:37:59.647Z,43.13
2024-03-12T23:40:26.764Z,43.63
2024-03-12T23:42:54.955Z,44.53
2024-03-12T23:45:22.159Z,42.13
2024-03-12T23:47:49.613Z,50.03
2024-03-12T23:50:16.372Z,45.80
2024-03-12T23:52:42.929Z,42.87
2024-03-12T23:55:10.358Z,44.83
2024-03-12T23:57:38.116Z,47.17
